createdAt,value
2019-02-04T00:00:26.451Z,51.6
2019-02-04T00:01:15.988Z,51.5
2019-02-04T00:02:06.264Z,51.5
2019-02-04T00:02:56.613Z,51.5
2019-02-04T00:03:47.263Z,51.5
2019-02-04T00:04:36.742Z,51.5
2019-02-04T00:05:26.515Z,51.5
2019-02-04T00:06:16.837Z,51.4
2019-02-04T00:07:10.823Z,51.4
2019-02-04T00:07:56.980Z,51.4
2019-02-04T00:08:47.039Z,51.4
2019-02-04T00:09:37.072Z,51.4
2019-02-04T00:10:26.873Z,51.4
2019-02-04T00:11:17.212Z,51.4
2019-02-04T00:12:07.253Z,51.4
2019-02-04T00:12:57.050Z,51.4
2019-02-04T00:13:47.390Z,51.4
2019-02-04T00:14:37.432Z,51.4
2019-02-04T00:15:27.550Z,51.4
2019-02-04T00:16:19.482Z,51.4
2019-02-04T00:17:07.602Z,51.3
2019-02-04T00:17:57.122Z,51.3
2019-02-04T00:18:47.264Z,51.3
2019-02-04T00:19:37.746Z,51.3
2019-02-04T00:20:27.829Z,51.3
2019-02-04T00:21:17.890Z,51.3
2019-02-04T00:22:07.949Z,51.3
2019-02-04T00:22:58.258Z,51.3
2019-02-04T00:23:47.786Z,51.3
2019-02-04T00:24:38.444Z,51.3
2019-02-04T00:25:29.909Z,51.3
2019-02-04T00:26:17.710Z,51.2
2019-02-04T00:27:08.778Z,51.3
2019-02-04T00:27:58.846Z,51.2
2019-02-04T00:28:48.378Z,51.2
2019-02-04T00:29:38.501Z,51.2
2019-02-04T00:30:28.466Z,51.2
2019-02-04T00:31:18.850Z,51.2
2019-02-04T00:32:08.912Z,51.1
2019-02-04T00:32:59.206Z,51.1
2019-02-04T00:33:49.263Z,51.1
2019-02-04T00:34:40.098Z,51.1
2019-02-04T00:35:28.864Z,51.1
2019-02-04T00:36:19.160Z,51.1
2019-02-04T00:37:08.718Z,51.1
2019-02-04T00:37:59.236Z,51.1
2019-02-04T00:38:49.623Z,51.1
2019-02-04T00:39:38.568Z,51.1
2019-02-04T00:40:44.388Z,51.1
2019-02-04T00:41:19.527Z,51
2019-02-04T00:42:08.463Z,51
2019-02-04T00:42:59.935Z,51
2019-02-04T00:43:50.802Z,51
2019-02-04T00:44:39.732Z,51
2019-02-04T00:45:30.160Z,50.9
2019-02-04T00:46:19.859Z,50.9
2019-02-04T00:47:10.289Z,51
2019-02-04T00:48:00.070Z,50.9
2019-02-04T00:48:50.125Z,50.9
2019-02-04T00:49:40.367Z,50.9
2019-02-04T00:50:30.419Z,50.9
2019-02-04T00:51:20.610Z,50.9
2019-02-04T00:52:10.292Z,50.9
2019-02-04T00:53:01.683Z,50.9
2019-02-04T00:53:50.680Z,50.9
2019-02-04T00:54:54.811Z,50.8
2019-02-04T00:55:30.572Z,50.9
2019-02-04T00:56:21.388Z,50.8
2019-02-04T00:57:10.377Z,50.8
2019-02-04T00:58:00.682Z,50.8
2019-02-04T00:58:51.099Z,50.8
2019-02-04T00:59:40.246Z,50.8
2019-02-04T01:00:31.225Z,50.8
2019-02-04T01:01:20.631Z,50.8
2019-02-04T01:02:11.980Z,50.8
2019-02-04T01:03:00.496Z,50.8
2019-02-04T01:03:51.109Z,50.8
2019-02-04T01:04:41.424Z,50.8
2019-02-04T01:05:32.147Z,50.8
2019-02-04T01:06:21.589Z,50.7
2019-02-04T01:07:11.054Z,50.7
2019-02-04T01:08:01.644Z,50.7
2019-02-04T01:08:51.424Z,50.7
2019-02-04T01:09:41.206Z,50.7
2019-02-04T01:10:31.966Z,50.7
2019-02-04T01:11:22.056Z,50.7
2019-02-04T01:12:11.937Z,50.6
2019-02-04T01:13:02.006Z,50.6
2019-02-04T01:13:51.784Z,50.6
2019-02-04T01:14:43.363Z,50.6
2019-02-04T01:15:31.442Z,50.6
2019-02-04T01:16:22.295Z,50.6
2019-02-04T01:17:12.422Z,50.6
2019-02-04T01:18:02.028Z,50.6
2019-02-04T01:18:52.465Z,50.6
2019-02-04T01:19:42.397Z,50.6
2019-02-04T01:20:31.759Z,50.6
2019-02-04T01:21:21.979Z,50.6
2019-02-04T01:22:12.579Z,50.5
2019-02-04T01:23:02.675Z,50.5
2019-02-04T01:23:54.700Z,50.5
2019-02-04T01:24:42.495Z,50.5
2019-02-04T01:25:32.607Z,50.5
2019-02-04T01:26:22.331Z,50.4
2019-02-04T01:27:12.939Z,50.4
2019-02-04T01:28:02.441Z,50.4
2019-02-04T01:28:53.034Z,50.4
2019-02-04T01:29:42.824Z,50.4
2019-02-04T01:30:33.186Z,50.4
2019-02-04T01:31:22.381Z,50.4
2019-02-04T01:32:13.040Z,50.4
2019-02-04T01:33:04.528Z,50.4
2019-02-04T01:33:53.408Z,50.4
2019-02-04T01:34:43.476Z,50.4
2019-02-04T01:35:33.261Z,50.4
2019-02-04T01:36:23.861Z,50.3
2019-02-04T01:37:13.069Z,50.3
2019-02-04T01:38:03.691Z,50.3
2019-02-04T01:38:53.750Z,50.3
2019-02-04T01:39:43.813Z,50.3
2019-02-04T01:40:33.871Z,50.3
2019-02-04T01:41:23.644Z,50.3
2019-02-04T01:42:14.213Z,50.3
2019-02-04T01:43:04.038Z,50.3
2019-02-04T01:43:54.100Z,50.3
2019-02-04T01:44:43.038Z,50.3
2019-02-04T01:45:35.458Z,50.3
2019-02-04T01:46:24.000Z,50.2
2019-02-04T01:47:21.420Z,50.2
2019-02-04T01:48:04.170Z,50.2
2019-02-04T01:48:54.434Z,50.2
2019-02-04T01:49:43.930Z,50.2
2019-02-04T01:50:34.305Z,50.2
2019-02-04T01:51:24.484Z,50.2
2019-02-04T01:52:14.734Z,50.1
2019-02-04T01:53:04.452Z,50.1
2019-02-04T01:53:54.497Z,50.1
2019-02-04T01:54:46.497Z,50.1
2019-02-04T01:55:34.624Z,50.1
2019-02-04T01:56:24.725Z,50.1
2019-02-04T01:57:14.842Z,50.1
2019-02-04T01:58:04.553Z,50.1
2019-02-04T01:58:55.128Z,50.1
2019-02-04T01:59:45.002Z,50.1
2019-02-04T02:00:35.051Z,50.1
2019-02-04T02:01:25.039Z,50
2019-02-04T02:02:14.560Z,50
2019-02-04T02:03:05.192Z,50
2019-02-04T02:03:57.270Z,50
2019-02-04T02:04:45.262Z,50
2019-02-04T02:05:34.507Z,49.9
2019-02-04T02:06:25.375Z,49.9
2019-02-04T02:07:15.471Z,49.9
2019-02-04T02:08:05.311Z,49.9
2019-02-04T02:08:55.584Z,49.9
2019-02-04T02:09:45.624Z,49.9
2019-02-04T02:10:35.176Z,49.9
2019-02-04T02:11:25.459Z,49.9
2019-02-04T02:12:15.512Z,49.9
2019-02-04T02:13:07.262Z,49.9
2019-02-04T02:13:55.341Z,49.9
2019-02-04T02:14:45.985Z,49.8
2019-02-04T02:15:35.753Z,49.9
2019-02-04T02:16:29.841Z,49.8
2019-02-04T02:17:28.284Z,49.8
2019-02-04T02:18:06.515Z,49.8
2019-02-04T02:18:56.248Z,49.8
2019-02-04T02:19:46.449Z,49.8
2019-02-04T02:20:36.678Z,49.8
2019-02-04T02:21:26.431Z,49.8
2019-02-04T02:22:17.151Z,49.8
2019-02-04T02:23:06.595Z,49.8
2019-02-04T02:23:56.655Z,49.8
2019-02-04T02:24:46.511Z,49.8
2019-02-04T02:25:38.250Z,49.7
2019-02-04T02:26:26.778Z,49.7
2019-02-04T02:27:16.880Z,49.7
2019-02-04T02:28:06.920Z,49.7
2019-02-04T02:28:57.237Z,49.7
2019-02-04T02:29:46.749Z,49.6
2019-02-04T02:30:37.183Z,49.6
2019-02-04T02:31:27.457Z,49.6
2019-02-04T02:32:16.959Z,49.6
2019-02-04T02:33:07.700Z,49.6
2019-02-04T02:33:56.497Z,49.6
2019-02-04T02:34:49.095Z,49.6
2019-02-04T02:35:36.898Z,49.6
2019-02-04T02:36:26.947Z,49.6
2019-02-04T02:37:17.853Z,49.6
2019-02-04T02:38:06.795Z,49.6
2019-02-04T02:38:57.402Z,49.6
2019-02-04T02:39:47.484Z,49.5
2019-02-04T02:40:38.044Z,49.5
2019-02-04T02:41:28.289Z,49.5
2019-02-04T02:42:17.594Z,49.5
2019-02-04T02:43:07.580Z,49.5
2019-02-04T02:43:59.782Z,49.5
2019-02-04T02:44:47.529Z,49.5
2019-02-04T02:45:38.182Z,49.4
2019-02-04T02:46:28.246Z,49.4
2019-02-04T02:47:18.030Z,49.4
2019-02-04T02:48:07.469Z,49.3
2019-02-04T02:48:58.249Z,49.2
2019-02-04T02:49:49.062Z,49.1
2019-02-04T02:50:38.502Z,49.1
2019-02-04T02:51:28.266Z,49.1
2019-02-04T02:52:18.603Z,49.1
2019-02-04T02:53:10.144Z,49.1
2019-02-04T02:53:58.738Z,49.1
2019-02-04T02:54:49.214Z,49.3
2019-02-04T02:55:39.108Z,49.4
2019-02-04T02:56:29.181Z,49.6
2019-02-04T02:57:19.211Z,49.8
2019-02-04T02:58:08.996Z,50
2019-02-04T02:58:59.404Z,50.2
2019-02-04T02:59:49.408Z,50.4
2019-02-04T03:00:38.902Z,50.6
2019-02-04T03:01:29.523Z,50.8
2019-02-04T03:02:21.595Z,51.1
2019-02-04T03:03:09.724Z,51.3
2019-02-04T03:03:59.419Z,51.5
2019-02-04T03:04:49.761Z,51.7
2019-02-04T03:08:22.040Z,52.6
2019-02-04T03:09:13.386Z,52.9
2019-02-04T03:10:02.165Z,53.2
2019-02-04T03:10:51.868Z,53.4
2019-02-04T03:11:42.150Z,53.6
2019-02-04T03:12:32.425Z,53.8
2019-02-04T03:13:22.265Z,54.1
2019-02-04T03:14:12.105Z,54.3
2019-02-04T03:15:02.845Z,54.6
2019-02-04T03:15:52.137Z,54.8
2019-02-04T03:16:42.475Z,55
2019-02-04T03:17:31.811Z,55.3
2019-02-04T03:18:24.637Z,55.5
2019-02-04T03:19:12.392Z,55.7
2019-02-04T03:20:02.745Z,55.9
2019-02-04T03:20:52.242Z,56.1
2019-02-04T03:21:42.551Z,56.4
2019-02-04T03:22:32.330Z,56.6
2019-02-04T03:23:22.967Z,56.8
2019-02-04T03:24:13.097Z,57
2019-02-04T03:25:02.961Z,57.3
2019-02-04T03:25:52.844Z,57.5
2019-02-04T03:26:43.323Z,57.7
2019-02-04T03:27:34.942Z,57.9
2019-02-04T03:28:23.000Z,58.2
2019-02-04T03:29:13.334Z,58.4
2019-02-04T03:30:03.467Z,58.6
2019-02-04T03:30:53.458Z,58.9
2019-02-04T03:31:50.295Z,59.1
2019-02-04T03:32:33.702Z,59.3
2019-02-04T03:33:23.919Z,59.5
2019-02-04T03:34:13.145Z,59.8
2019-02-04T03:35:03.557Z,60
2019-02-04T03:35:53.571Z,60.2
2019-02-04T03:36:44.808Z,60.4
2019-02-04T03:37:33.653Z,60.7
2019-02-04T03:38:23.798Z,60.8
2019-02-04T03:39:14.108Z,60.8
2019-02-04T03:40:04.536Z,61.1
2019-02-04T03:40:53.393Z,61.3
2019-02-04T03:41:43.963Z,61.4
2019-02-04T03:42:33.741Z,61.4
2019-02-04T03:43:24.081Z,61.5
2019-02-04T03:44:14.176Z,61.5
2019-02-04T03:45:04.348Z,61.6
2019-02-04T03:45:54.911Z,61.6
2019-02-04T03:46:44.572Z,61.7
2019-02-04T03:47:33.895Z,61.7
2019-02-04T03:48:23.379Z,61.7
2019-02-04T03:49:16.206Z,61.8
2019-02-04T03:50:04.638Z,61.8
2019-02-04T03:50:54.687Z,61.8
2019-02-04T03:51:44.484Z,61.7
2019-02-04T03:52:34.677Z,61.7
2019-02-04T03:53:24.735Z,61.7
2019-02-04T03:54:15.104Z,61.7
2019-02-04T03:55:04.873Z,61.7
2019-02-04T03:55:54.712Z,61.7
2019-02-04T03:56:44.720Z,61.7
2019-02-04T03:57:34.851Z,61.7
2019-02-04T03:58:26.557Z,61.7
2019-02-04T03:59:15.147Z,61.6
2019-02-04T04:00:05.077Z,61.6
2019-02-04T04:00:54.995Z,61.6
2019-02-04T04:01:45.112Z,61.6
2019-02-04T04:02:34.904Z,61.6
2019-02-04T04:03:25.219Z,61.6
2019-02-04T04:04:15.122Z,61.6
2019-02-04T04:05:05.382Z,61.6
2019-02-04T04:05:55.417Z,61.6
2019-02-04T04:06:44.942Z,61.6
2019-02-04T04:07:36.734Z,61.6
2019-02-04T04:08:25.645Z,61.6
2019-02-04T04:09:15.361Z,61.6
2019-02-04T04:10:05.419Z,61.6
2019-02-04T04:10:55.536Z,61.5
2019-02-04T04:11:45.805Z,61.5
2019-02-04T04:12:35.874Z,61.5
2019-02-04T04:13:26.036Z,61.5
2019-02-04T04:14:15.977Z,61.5
2019-02-04T04:15:05.782Z,61.5
2019-02-04T04:15:56.096Z,61.5
2019-02-04T04:16:46.833Z,61.5
2019-02-04T04:17:35.951Z,61.5
2019-02-04T04:18:26.193Z,61.4
2019-02-04T04:19:16.639Z,61.4
2019-02-04T04:20:08.007Z,61.4
2019-02-04T04:20:56.679Z,61.4
2019-02-04T04:21:46.733Z,61.4
2019-02-04T04:22:37.059Z,61.4
2019-02-04T04:23:26.828Z,61.4
2019-02-04T04:24:16.624Z,61.4
2019-02-04T04:25:07.428Z,61.4
2019-02-04T04:25:57.815Z,61.4
2019-02-04T04:26:47.345Z,61.4
2019-02-04T04:27:37.232Z,61.4
2019-02-04T04:28:27.498Z,61.3
2019-02-04T04:29:19.147Z,61.3
2019-02-04T04:30:07.602Z,61.3
2019-02-04T04:30:57.365Z,61.3
2019-02-04T04:31:47.403Z,61.3
2019-02-04T04:32:37.733Z,61.3
2019-02-04T04:33:27.623Z,61.3
2019-02-04T04:34:17.310Z,61.3
2019-02-04T04:35:08.605Z,61.3
2019-02-04T04:35:57.965Z,61.3
2019-02-04T04:36:48.048Z,61.3
2019-02-04T04:37:38.105Z,61.3
2019-02-04T04:38:29.322Z,61.2
2019-02-04T04:39:18.197Z,61.3
2019-02-04T04:40:08.276Z,61.2
2019-02-04T04:40:58.337Z,61.2
2019-02-04T04:41:47.932Z,61.2
2019-02-04T04:42:38.187Z,61.2
2019-02-04T04:43:28.250Z,61.2
2019-02-04T04:44:19.194Z,61.2
2019-02-04T04:45:08.624Z,61.2
2019-02-04T04:45:58.394Z,61.1
2019-02-04T04:46:48.184Z,61.1
2019-02-04T04:47:40.887Z,61.1
2019-02-04T04:48:30.426Z,61.1
2019-02-04T04:49:18.641Z,61.1
2019-02-04T04:50:08.956Z,61.1
2019-02-04T04:50:58.729Z,61.1
2019-02-04T04:51:48.529Z,61.1
2019-02-04T04:52:39.123Z,61.1
2019-02-04T04:53:28.918Z,61.1
2019-02-04T04:54:18.969Z,61.1
2019-02-04T04:55:08.494Z,61.1
2019-02-04T04:55:59.111Z,61.1
2019-02-04T04:56:50.954Z,61
2019-02-04T04:57:39.476Z,61
2019-02-04T04:58:29.540Z,61
2019-02-04T04:59:19.341Z,61
2019-02-04T05:00:09.418Z,61
2019-02-04T05:00:59.711Z,61
2019-02-04T05:01:49.748Z,61
2019-02-04T05:02:39.978Z,60.9
2019-02-04T05:03:29.610Z,60.9
2019-02-04T05:04:19.642Z,60.9
2019-02-04T05:05:09.750Z,60.9
2019-02-04T05:06:01.798Z,60.9
2019-02-04T05:06:50.111Z,60.9
2019-02-04T05:07:40.170Z,60.9
2019-02-04T05:08:29.918Z,60.9
2019-02-04T05:09:20.290Z,60.9
2019-02-04T05:10:10.328Z,60.9
2019-02-04T05:11:00.412Z,60.9
2019-02-04T05:11:50.462Z,60.9
2019-02-04T05:12:40.240Z,60.9
2019-02-04T05:13:30.300Z,60.9
2019-02-04T05:14:20.077Z,60.8
2019-02-04T05:15:12.720Z,60.9
2019-02-04T05:16:00.739Z,60.8
2019-02-04T05:16:50.817Z,60.8
2019-02-04T05:17:40.869Z,60.8
2019-02-04T05:18:41.771Z,60.8
2019-02-04T05:19:20.727Z,60.8
2019-02-04T05:20:11.042Z,60.8
2019-02-04T05:21:01.084Z,60.8
2019-02-04T05:21:50.882Z,60.8
2019-02-04T05:22:40.957Z,60.8
2019-02-04T05:23:31.004Z,60.8
2019-02-04T05:24:22.471Z,60.8
2019-02-04T05:25:11.396Z,60.8
2019-02-04T05:26:00.901Z,60.7
2019-02-04T05:26:51.223Z,60.8
2019-02-04T05:27:43.584Z,60.7
2019-02-04T05:28:31.615Z,60.7
2019-02-04T05:29:21.703Z,60.7
2019-02-04T05:30:11.501Z,60.7
2019-02-04T05:31:01.891Z,60.7
2019-02-04T05:31:51.864Z,60.6
2019-02-04T05:32:41.619Z,60.6
2019-02-04T05:33:32.022Z,60.6
2019-02-04T05:34:22.013Z,60.6
2019-02-04T05:35:11.791Z,60.6
2019-02-04T05:36:02.139Z,60.6
2019-02-04T05:36:53.430Z,60.6
2019-02-04T05:37:42.250Z,60.6
2019-02-04T05:38:32.318Z,60.6
2019-02-04T05:39:22.366Z,60.6
2019-02-04T05:40:12.415Z,60.6
2019-02-04T05:41:02.226Z,60.6
2019-02-04T05:41:52.295Z,60.6
2019-02-04T05:42:42.657Z,60.6
2019-02-04T05:43:32.670Z,60.5
2019-02-04T05:44:22.704Z,60.5
2019-02-04T05:45:12.568Z,60.6
2019-02-04T05:46:04.397Z,60.5
2019-02-04T05:46:55.551Z,60.5
2019-02-04T05:47:42.958Z,60.5
2019-02-04T05:48:32.818Z,60.5
2019-02-04T05:49:22.810Z,60.4
2019-02-04T05:50:12.845Z,60.4
2019-02-04T05:51:03.189Z,60.4
2019-02-04T05:51:56.192Z,60.4
2019-02-04T05:52:42.752Z,60.4
2019-02-04T05:53:33.134Z,60.4
2019-02-04T05:54:23.392Z,60.4
2019-02-04T05:55:15.809Z,60.4
2019-02-04T05:56:03.612Z,60.4
2019-02-04T05:56:53.277Z,60.4
2019-02-04T05:57:43.632Z,60.4
2019-02-04T05:58:36.383Z,60.4
2019-02-04T05:59:23.755Z,60.4
2019-02-04T06:00:13.264Z,60.4
2019-02-04T06:01:03.860Z,60.4
2019-02-04T06:01:53.637Z,60.3
2019-02-04T06:02:43.724Z,60.3
2019-02-04T06:03:33.474Z,60.3
2019-02-04T06:04:26.342Z,60.3
2019-02-04T06:06:21.739Z,60.3
2019-02-04T06:07:11.901Z,60.3
2019-02-04T06:08:01.839Z,60.3
2019-02-04T06:08:51.884Z,60.3
2019-02-04T06:09:42.016Z,60.3
2019-02-04T06:10:31.721Z,60.3
2019-02-04T06:11:21.791Z,60.3
2019-02-04T06:12:11.953Z,60.3
2019-02-04T06:13:16.914Z,60.3
2019-02-04T06:14:06.145Z,60.2
2019-02-04T06:14:44.603Z,60.2
2019-02-04T06:15:32.084Z,60.2
2019-02-04T06:16:22.413Z,60.2
2019-02-04T06:17:11.933Z,60.2
2019-02-04T06:18:02.273Z,60.2
2019-02-04T06:19:04.233Z,60.2
2019-02-04T06:19:41.551Z,60.1
2019-02-04T06:20:32.695Z,60.1
2019-02-04T06:21:22.470Z,60.1
2019-02-04T06:22:12.270Z,60.1
2019-02-04T06:23:03.053Z,60.1
2019-02-04T06:23:54.021Z,60.1
2019-02-04T06:24:42.725Z,60.1
2019-02-04T06:25:33.086Z,60.1
2019-02-04T06:26:23.167Z,60.1
2019-02-04T06:27:13.773Z,60.1
2019-02-04T06:28:02.675Z,60.1
2019-02-04T06:28:53.012Z,60.1
2019-02-04T06:29:43.348Z,60.1
2019-02-04T06:30:33.112Z,60.1
2019-02-04T06:31:23.552Z,60
2019-02-04T06:32:13.542Z,60
2019-02-04T06:33:04.847Z,60
2019-02-04T06:33:53.346Z,60
2019-02-04T06:35:15.314Z,60
2019-02-04T06:35:32.907Z,59.9
2019-02-04T06:36:23.237Z,59.9
2019-02-04T06:37:13.280Z,59.9
2019-02-04T06:38:03.745Z,59.9
2019-02-04T06:38:53.699Z,59.9
2019-02-04T06:39:44.192Z,59.9
2019-02-04T06:40:33.554Z,59.9
2019-02-04T06:41:24.159Z,59.9
2019-02-04T06:42:15.679Z,59.9
2019-02-04T06:43:04.264Z,59.9
2019-02-04T06:43:54.041Z,59.9
2019-02-04T06:44:44.353Z,59.9
2019-02-04T06:45:34.566Z,59.9
2019-02-04T06:46:23.982Z,59.9
2019-02-04T06:47:14.258Z,59.8
2019-02-04T06:48:04.096Z,59.9
2019-02-04T06:48:54.215Z,59.8
2019-02-04T06:49:44.740Z,59.8
2019-02-04T06:50:34.548Z,59.8
2019-02-04T06:51:25.516Z,59.8
2019-02-04T06:52:14.627Z,59.8
2019-02-04T06:53:05.292Z,59.8
2019-02-04T06:53:54.486Z,59.8
2019-02-04T06:54:45.293Z,59.8
2019-02-04T06:55:34.721Z,59.8
2019-02-04T06:56:24.923Z,59.8
2019-02-04T06:57:14.443Z,59.8
2019-02-04T06:58:04.803Z,59.7
2019-02-04T06:58:54.799Z,59.8
2019-02-04T06:59:45.413Z,59.7
2019-02-04T07:00:36.748Z,59.7
2019-02-04T07:01:25.544Z,59.7
2019-02-04T07:02:14.484Z,59.7
2019-02-04T07:03:05.448Z,59.7
2019-02-04T07:03:56.050Z,59.7
2019-02-04T07:06:22.385Z,59.6
2019-02-04T07:07:11.170Z,59.6
2019-02-04T07:08:01.245Z,59.6
2019-02-04T07:08:51.557Z,59.6
2019-02-04T07:09:43.191Z,59.6
2019-02-04T07:10:31.796Z,59.6
2019-02-04T07:11:22.002Z,59.6
2019-02-04T07:12:11.780Z,59.6
2019-02-04T07:13:01.960Z,59.6
2019-02-04T07:13:52.222Z,59.6
2019-02-04T07:14:41.989Z,59.6
2019-02-04T07:15:33.012Z,59.6
2019-02-04T07:16:22.464Z,59.5
2019-02-04T07:17:12.134Z,59.5
2019-02-04T07:18:05.440Z,59.6
2019-02-04T07:18:52.934Z,59.5
2019-02-04T07:19:42.322Z,59.5
2019-02-04T07:20:32.734Z,59.5
2019-02-04T07:21:24.579Z,59.5
2019-02-04T07:22:11.942Z,59.4
2019-02-04T07:23:02.300Z,59.4
2019-02-04T07:23:52.324Z,59.4
2019-02-04T07:24:46.929Z,59.4
2019-02-04T07:25:32.752Z,59.4
2019-02-04T07:26:23.161Z,59.4
2019-02-04T07:27:12.268Z,59.4
2019-02-04T07:28:02.928Z,59.4
2019-02-04T07:28:53.053Z,59.4
2019-02-04T07:29:43.271Z,59.4
2019-02-04T07:30:33.358Z,59.4
2019-02-04T07:31:23.198Z,59.4
2019-02-04T07:32:13.171Z,59.4
2019-02-04T07:33:02.686Z,59.3
2019-02-04T07:33:54.994Z,59.3
2019-02-04T07:34:43.451Z,59.3
2019-02-04T07:35:33.393Z,59.3
2019-02-04T07:36:23.748Z,59.3
2019-02-04T07:37:13.245Z,59.3
2019-02-04T07:38:03.316Z,59.3
2019-02-04T07:38:53.920Z,59.3
2019-02-04T07:39:43.408Z,59.3
2019-02-04T07:40:33.498Z,59.3
2019-02-04T07:41:24.178Z,59.3
2019-02-04T07:42:14.192Z,59.3
2019-02-04T07:43:06.562Z,59.3
2019-02-04T07:43:53.990Z,59.3
2019-02-04T07:44:44.323Z,59.2
2019-02-04T07:45:33.820Z,59.2
2019-02-04T07:46:27.330Z,59.2
2019-02-04T07:47:13.922Z,59.2
2019-02-04T07:48:04.003Z,59.2
2019-02-04T07:48:54.050Z,59.2
2019-02-04T07:49:44.670Z,59.1
2019-02-04T07:50:34.727Z,59.1
2019-02-04T07:51:24.477Z,59.1
2019-02-04T07:52:16.780Z,59.1
2019-02-04T07:53:04.892Z,59.1
2019-02-04T07:53:54.662Z,59.1
2019-02-04T07:54:44.979Z,59.1
2019-02-04T07:55:34.769Z,59.1
2019-02-04T07:56:24.569Z,59.1
2019-02-04T07:57:15.215Z,59.1
2019-02-04T07:58:04.679Z,59.1
2019-02-04T07:58:55.298Z,59.1
2019-02-04T07:59:44.779Z,59
2019-02-04T08:00:35.134Z,59
2019-02-04T08:01:26.898Z,59
2019-02-04T08:02:14.822Z,59
2019-02-04T08:03:05.309Z,59
2019-02-04T08:03:55.351Z,59
2019-02-04T08:04:45.494Z,59
2019-02-04T08:05:35.489Z,58.9
2019-02-04T08:06:25.246Z,59
2019-02-04T08:07:15.016Z,58.9
2019-02-04T08:08:05.658Z,58.9
2019-02-04T08:08:55.841Z,58.9
2019-02-04T08:09:45.841Z,58.9
2019-02-04T08:10:37.641Z,58.9
2019-02-04T08:11:25.349Z,58.9
2019-02-04T08:12:15.124Z,58.9
2019-02-04T08:13:04.888Z,58.9
2019-02-04T08:13:56.325Z,58.9
2019-02-04T08:14:49.035Z,58.9
2019-02-04T08:15:35.918Z,58.9
2019-02-04T08:16:26.235Z,58.8
2019-02-04T08:17:16.567Z,58.9
2019-02-04T08:18:06.385Z,58.8
2019-02-04T08:18:56.130Z,58.8
2019-02-04T08:19:51.391Z,58.8
2019-02-04T08:20:36.866Z,58.8
2019-02-04T08:21:26.005Z,58.8
2019-02-04T08:22:16.719Z,58.8
2019-02-04T08:23:06.570Z,58.8
2019-02-04T08:23:56.757Z,58.8
2019-02-04T08:24:46.803Z,58.8
2019-02-04T08:25:37.200Z,58.8
2019-02-04T08:26:26.792Z,58.8
2019-02-04T08:27:17.257Z,58.8
2019-02-04T08:28:07.312Z,58.7
2019-02-04T08:28:58.810Z,58.7
2019-02-04T08:29:47.414Z,58.7
2019-02-04T08:30:40.932Z,58.7
2019-02-04T08:31:27.370Z,58.7
2019-02-04T08:32:17.592Z,58.7
2019-02-04T08:33:07.421Z,58.6
2019-02-04T08:33:57.499Z,58.6
2019-02-04T08:34:47.619Z,58.6
2019-02-04T08:35:38.067Z,58.6
2019-02-04T08:36:27.652Z,58.6
2019-02-04T08:37:17.736Z,58.6
2019-02-04T08:43:58.967Z,58.5
2019-02-04T08:44:47.956Z,58.5
2019-02-04T08:45:38.711Z,58.5
2019-02-04T08:46:28.384Z,58.5
2019-02-04T08:47:27.489Z,58.5
2019-02-04T08:48:08.321Z,58.5
2019-02-04T08:48:58.504Z,58.4
2019-02-04T08:50:03.246Z,58.4
2019-02-04T08:50:38.745Z,58.4
2019-02-04T08:51:28.686Z,58.4
2019-02-04T08:52:18.756Z,58.4
2019-02-04T08:53:10.548Z,58.4
2019-02-04T08:53:58.875Z,58.4
2019-02-04T08:54:48.690Z,58.4
2019-02-04T08:55:38.998Z,58.4
2019-02-04T08:56:28.793Z,58.4
2019-02-04T08:57:18.666Z,58.4
2019-02-04T08:58:09.513Z,58.4
2019-02-04T08:58:58.790Z,58.3
2019-02-04T08:59:49.130Z,58.4
2019-02-04T09:00:39.361Z,58.3
2019-02-04T09:01:29.697Z,58.3
2019-02-04T09:02:21.742Z,58.3
2019-02-04T09:03:09.330Z,58.3
2019-02-04T09:03:59.830Z,58.3
2019-02-04T09:04:49.935Z,58.3
2019-02-04T09:05:39.407Z,58.3
2019-02-04T09:06:29.565Z,58.3
2019-02-04T09:07:19.557Z,58.3
2019-02-04T09:08:10.870Z,58.3
2019-02-04T09:08:59.897Z,58.3
2019-02-04T09:09:49.734Z,58.3
2019-02-04T09:10:40.350Z,58.3
2019-02-04T09:11:30.495Z,58.2
2019-02-04T09:12:19.904Z,58.2
2019-02-04T09:13:09.914Z,58.2
2019-02-04T09:13:59.959Z,58.2
2019-02-04T09:14:50.314Z,58.2
2019-02-04T09:15:40.417Z,58.2
2019-02-04T09:16:30.229Z,58.1
2019-02-04T09:17:21.992Z,58.1
2019-02-04T09:18:09.429Z,58.1
2019-02-04T09:19:00.842Z,58.1
2019-02-04T09:19:50.691Z,58.1
2019-02-04T09:20:41.012Z,58.1
2019-02-04T09:21:30.605Z,58.1
2019-02-04T09:22:21.203Z,58.1
2019-02-04T09:23:11.116Z,58.1
2019-02-04T09:24:00.944Z,58.1
2019-02-04T09:24:50.448Z,58.1
2019-02-04T09:25:40.844Z,58.1
2019-02-04T09:26:32.446Z,58.1
2019-02-04T09:27:20.911Z,58
2019-02-04T09:28:10.762Z,58
2019-02-04T09:29:01.297Z,58
2019-02-04T09:29:51.644Z,58
2019-02-04T09:30:41.703Z,58
2019-02-04T09:31:31.173Z,58
2019-02-04T09:32:22.563Z,57.9
2019-02-04T09:33:11.573Z,57.9
2019-02-04T09:34:01.351Z,57.9
2019-02-04T09:34:51.711Z,57.9
2019-02-04T09:35:41.410Z,57.9
2019-02-04T09:36:32.093Z,57.9
2019-02-04T09:37:22.211Z,57.9
2019-02-04T09:38:11.734Z,57.9
2019-02-04T09:39:02.439Z,57.9
2019-02-04T09:39:52.135Z,57.9
2019-02-04T09:40:42.159Z,57.9
2019-02-04T09:41:32.993Z,57.9
2019-02-04T09:42:22.271Z,57.9
2019-02-04T09:43:12.614Z,57.8
2019-02-04T09:44:01.606Z,57.8
2019-02-04T09:44:53.236Z,57.8
2019-02-04T09:45:42.502Z,57.8
2019-02-04T09:46:32.809Z,57.8
2019-02-04T09:47:22.752Z,57.8
2019-02-04T09:48:12.627Z,57.8
2019-02-04T09:53:13.120Z,57.7
2019-02-04T09:54:03.057Z,57.7
2019-02-04T09:54:52.564Z,57.7
2019-02-04T09:55:43.464Z,57.7
2019-02-04T09:56:33.519Z,57.7
2019-02-04T09:57:23.559Z,57.7
2019-02-04T09:58:13.348Z,57.6
2019-02-04T09:59:03.603Z,57.7
2019-02-04T09:59:56.480Z,57.6
2019-02-04T10:00:43.483Z,57.6
2019-02-04T10:01:33.506Z,57.6
2019-02-04T10:02:23.298Z,57.6
2019-02-04T10:03:13.461Z,57.6
2019-02-04T10:04:03.996Z,57.6
2019-02-04T10:04:53.736Z,57.6
2019-02-04T10:07:20.961Z,57.6
2019-02-04T10:08:11.111Z,57.6
2019-02-04T10:09:03.625Z,57.6
2019-02-04T10:09:51.409Z,57.6
2019-02-04T10:10:41.501Z,57.5
2019-02-04T10:11:31.523Z,57.5
2019-02-04T10:12:21.603Z,57.5
2019-02-04T10:13:11.370Z,57.5
2019-02-04T10:14:01.709Z,57.5
2019-02-04T10:14:51.781Z,57.5
2019-02-04T10:15:41.943Z,57.4
2019-02-04T10:16:32.407Z,57.4
2019-02-04T10:17:22.382Z,57.4
2019-02-04T10:18:13.967Z,57.4
2019-02-04T10:19:01.704Z,57.4
2019-02-04T10:19:52.714Z,57.4
2019-02-04T10:20:41.924Z,57.4
2019-02-04T10:21:32.503Z,57.4
2019-02-04T10:22:22.819Z,57.4
2019-02-04T10:23:12.521Z,57.4
2019-02-04T10:24:02.938Z,57.4
2019-02-04T10:24:52.690Z,57.3
2019-02-04T10:25:42.649Z,57.3
2019-02-04T10:26:32.549Z,57.3
2019-02-04T10:27:24.685Z,57.3
2019-02-04T10:28:13.046Z,57.3
2019-02-04T10:29:02.799Z,57.3
2019-02-04T10:29:53.287Z,57.3
2019-02-04T10:30:42.590Z,57.3
2019-02-04T10:31:32.776Z,57.3
2019-02-04T10:32:23.152Z,57.3
2019-02-04T10:33:13.727Z,57.3
2019-02-04T10:34:03.502Z,57.3
2019-02-04T10:34:53.415Z,57.2
2019-02-04T10:35:43.770Z,57.2
2019-02-04T10:36:34.289Z,57.2
2019-02-04T10:37:23.795Z,57.2
2019-02-04T10:38:16.823Z,57.2
2019-02-04T10:39:03.825Z,57.2
2019-02-04T10:39:54.759Z,57.2
2019-02-04T10:40:43.834Z,57.1
2019-02-04T10:41:33.578Z,57.1
2019-02-04T10:42:24.101Z,57.1
2019-02-04T10:43:14.406Z,57.1
2019-02-04T10:44:04.503Z,57.1
2019-02-04T10:44:53.680Z,57.1
2019-02-04T10:45:45.630Z,57.1
2019-02-04T10:46:34.137Z,57.1
2019-02-04T10:47:24.053Z,57.1
2019-02-04T10:48:14.721Z,57.1
2019-02-04T10:49:04.421Z,57.1
2019-02-04T10:49:54.298Z,57.1
2019-02-04T10:50:51.173Z,57
2019-02-04T10:51:34.977Z,57
2019-02-04T10:52:24.587Z,57
2019-02-04T10:53:14.778Z,57
2019-02-04T10:54:05.059Z,57
2019-02-04T10:54:56.665Z,57
2019-02-04T10:55:45.222Z,57
2019-02-04T10:56:34.902Z,56.9
2019-02-04T10:57:25.025Z,57
2019-02-04T10:58:15.336Z,56.9
2019-02-04T10:59:05.496Z,56.9
2019-02-04T10:59:55.080Z,56.9
2019-02-04T11:00:45.362Z,56.9
2019-02-04T11:01:35.385Z,56.9
2019-02-04T11:02:25.461Z,56.9
2019-02-04T11:03:15.350Z,56.9
2019-02-04T11:04:06.570Z,56.9
2019-02-04T11:04:55.481Z,56.9
2019-02-04T11:05:46.112Z,56.9
2019-02-04T11:06:35.298Z,56.9
2019-02-04T11:07:25.332Z,56.8
2019-02-04T11:08:16.282Z,56.8
2019-02-04T11:09:05.669Z,56.8
2019-02-04T11:09:56.305Z,56.8
2019-02-04T11:10:46.042Z,56.8
2019-02-04T11:11:36.229Z,56.8
2019-02-04T11:12:26.124Z,56.8
2019-02-04T11:13:17.825Z,56.8
2019-02-04T11:14:06.398Z,56.8
2019-02-04T11:14:56.365Z,56.8
2019-02-04T11:15:46.241Z,56.8
2019-02-04T11:16:36.575Z,56.7
2019-02-04T11:17:26.324Z,56.7
2019-02-04T11:18:16.604Z,56.7
2019-02-04T11:19:06.274Z,56.7
2019-02-04T11:19:56.894Z,56.7
2019-02-04T11:20:59.653Z,56.7
2019-02-04T11:21:36.406Z,56.7
2019-02-04T11:22:28.273Z,56.7
2019-02-04T11:23:16.520Z,56.6
2019-02-04T11:24:07.165Z,56.6
2019-02-04T11:24:57.310Z,56.6
2019-02-04T11:25:47.371Z,56.6